Time;durP1;ratioP1;P1;durP2;ratioP2;P2;SDS_P1;SDS_P2;PMS_P1;PMS_P2;Temp;Humidity;BMP_temperature;BMP_pressure;BME280_temperature;BME280_humidity;BME280_pressure;Samples;Min_cycle;Max_cycle;Signal;HPM_P1;HPM_P2
2023/07/17 00:00:03;;;;;;;11.48;2.85;;;15.70;99.90;;;;;;6247211;23;20350;-66
2023/07/17 00:02:30;;;;;;;6.65;2.38;;;15.70;99.90;;;;;;6247223;23;20024;-65
2023/07/17 00:04:58;;;;;;;8.85;2.83;;;15.70;99.90;;;;;;6246076;23;20020;-66
2023/07/17 00:07:25;;;;;;;8.65;2.63;;;15.70;99.90;;;;;;6247050;23;20020;-66
2023/07/17 00:09:52;;;;;;;7.40;2.75;;;15.70;99.90;;;;;;6245336;23;20028;-66
2023/07/17 00:12:19;;;;;;;8.70;2.42;;;15.70;99.90;;;;;;6246396;23;20031;-66
2023/07/17 00:14:46;;;;;;;8.13;2.30;;;15.70;99.90;;;;;;6245060;23;20454;-66
2023/07/17 00:17:13;;;;;;;10.52;3.03;;;15.70;99.90;;;;;;6245007;23;20074;-66
2023/07/17 00:19:40;;;;;;;8.55;2.47;;;15.70;99.90;;;;;;6244622;23;20231;-66
2023/07/17 00:22:08;;;;;;;14.65;3.97;;;15.70;99.90;;;;;;6245194;23;20078;-66
2023/07/17 00:24:35;;;;;;;10.30;3.70;;;15.80;99.90;;;;;;6245033;23;20028;-66
2023/07/17 00:27:02;;;;;;;8.15;2.45;;;15.80;99.90;;;;;;6245958;23;20023;-66
2023/07/17 00:29:30;;;;;;;13.98;3.50;;;15.80;99.90;;;;;;6245097;23;20027;-66
2023/07/17 00:31:58;;;;;;;10.13;3.17;;;15.90;99.90;;;;;;6245095;23;20024;-66
2023/07/17 00:34:25;;;;;;;13.48;3.25;;;15.90;99.90;;;;;;6244446;23;20070;-66
2023/07/17 00:36:52;;;;;;;8.00;3.42;;;16.00;99.90;;;;;;6246694;23;20031;-65
2023/07/17 00:39:21;;;;;;;9.80;3.30;;;15.90;99.90;;;;;;6244944;23;20024;-66
2023/07/17 00:41:49;;;;;;;9.90;3.15;;;16.00;99.90;;;;;;6244781;23;20024;-65
2023/07/17 00:44:16;;;;;;;15.52;3.22;;;16.00;99.90;;;;;;6245089;23;20028;-66
2023/07/17 00:46:45;;;;;;;11.98;3.00;;;16.00;99.90;;;;;;6246041;23;20020;-65
2023/07/17 00:49:12;;;;;;;8.10;2.78;;;16.00;99.90;;;;;;6244937;23;20024;-65
2023/07/17 00:51:40;;;;;;;13.10;3.30;;;16.10;99.90;;;;;;6244872;23;20346;-65
2023/07/17 00:54:08;;;;;;;10.85;3.30;;;16.10;99.90;;;;;;6246156;23;20031;-65
2023/07/17 00:56:38;;;;;;;9.52;3.45;;;16.10;99.90;;;;;;6246508;23;20347;-65
2023/07/17 00:59:06;;;;;;;9.13;3.10;;;16.10;99.90;;;;;;6244837;23;20070;-65
2023/07/17 01:01:34;;;;;;;8.73;3.13;;;16.00;99.90;;;;;;6245908;23;20028;-65
2023/07/17 01:04:04;;;;;;;6.32;2.58;;;16.00;99.90;;;;;;6244935;23;20036;-64
2023/07/17 01:06:31;;;;;;;;;;;16.00;99.90;;;;;;6245252;23;20024;-65
2023/07/17 01:08:58;;;;;;;5.57;2.35;;;15.90;99.90;;;;;;6245861;23;20304;-65
2023/07/17 01:11:25;;;;;;;4.72;1.83;;;15.90;99.90;;;;;;6246646;23;20027;-64
2023/07/17 01:13:54;;;;;;;5.75;1.85;;;15.80;99.90;;;;;;6244688;23;20028;-64
2023/07/17 01:16:20;;;;;;;5.70;2.20;;;15.70;99.90;;;;;;6243826;23;20095;-63
2023/07/17 01:18:48;;;;;;;6.18;2.40;;;15.50;99.90;;;;;;6246388;23;20020;-65
2023/07/17 01:21:19;;;;;;;4.50;2.35;;;15.50;99.90;;;;;;6246017;23;20024;-65
2023/07/17 01:23:48;;;;;;;6.20;2.17;;;15.50;99.90;;;;;;6245833;23;20028;-65
2023/07/17 01:26:16;;;;;;;6.47;2.10;;;15.50;99.90;;;;;;6246353;23;20027;-65
2023/07/17 01:28:44;;;;;;;5.88;2.20;;;15.40;99.90;;;;;;6244609;23;20070;-64
2023/07/17 01:31:11;;;;;;;7.82;2.63;;;15.40;99.90;;;;;;6243795;23;20073;-64
2023/07/17 01:33:39;;;;;;;5.82;2.60;;;15.30;99.90;;;;;;6246504;23;20070;-64
2023/07/17 01:36:07;;;;;;;6.10;1.95;;;15.30;99.90;;;;;;6245155;23;20034;-65
2023/07/17 01:38:34;;;;;;;7.65;2.35;;;15.30;99.90;;;;;;6246301;22;20024;-65
2023/07/17 01:41:02;;;;;;;6.43;2.65;;;15.30;99.90;;;;;;6244440;23;20350;-64
2023/07/17 01:43:29;;;;;;;9.75;2.80;;;15.30;99.90;;;;;;6244905;23;20466;-64
2023/07/17 01:45:56;;;;;;;5.70;2.72;;;15.30;99.90;;;;;;6245952;23;20024;-65
2023/07/17 01:48:23;;;;;;;5.45;2.30;;;15.20;99.90;;;;;;6244332;23;20027;-64
2023/07/17 01:50:50;;;;;;;10.52;2.75;;;15.20;99.90;;;;;;6245475;23;20027;-64
2023/07/17 01:53:19;;;;;;;7.43;2.67;;;15.20;99.90;;;;;;6245920;23;20035;-64
2023/07/17 01:55:46;;;;;;;8.68;2.78;;;15.20;99.90;;;;;;6246167;23;20066;-64
2023/07/17 01:58:14;;;;;;;5.45;2.33;;;15.20;99.90;;;;;;6243376;23;20024;-64
2023/07/17 02:00:41;;;;;;;7.00;2.47;;;15.20;99.90;;;;;;6244392;23;20070;-64
2023/07/17 02:03:08;;;;;;;6.22;2.58;;;15.10;99.90;;;;;;6245685;23;20462;-65
2023/07/17 02:05:35;;;;;;;7.15;2.65;;;15.10;99.90;;;;;;6243532;23;20078;-65
2023/07/17 02:08:02;;;;;;;6.63;2.50;;;15.10;99.90;;;;;;6245992;23;20322;-65
2023/07/17 02:10:29;;;;;;;7.00;2.33;;;15.10;99.90;;;;;;6244203;23;20108;-65
2023/07/17 02:12:56;;;;;;;7.55;2.83;;;15.00;99.90;;;;;;6245320;23;20031;-66
2023/07/17 02:15:24;;;;;;;7.35;2.72;;;15.10;99.90;;;;;;6246009;23;20024;-66
2023/07/17 02:17:51;;;;;;;10.70;3.03;;;15.00;99.90;;;;;;6245455;23;20028;-66
2023/07/17 02:20:18;;;;;;;5.75;2.70;;;15.00;99.90;;;;;;6245148;23;20020;-66
2023/07/17 02:22:45;;;;;;;6.38;2.70;;;14.90;99.90;;;;;;6244099;23;20024;-66
2023/07/17 02:25:12;;;;;;;9.05;2.58;;;14.90;99.90;;;;;;6243322;23;20101;-66
2023/07/17 02:27:39;;;;;;;9.52;3.78;;;14.90;99.90;;;;;;6243906;23;20020;-66
2023/07/17 02:30:07;;;;;;;8.75;2.85;;;14.90;99.90;;;;;;6243947;23;20024;-66
2023/07/17 02:32:35;;;;;;;6.05;2.88;;;14.90;99.90;;;;;;6243218;23;20385;-67
2023/07/17 02:35:02;;;;;;;7.20;2.80;;;14.80;99.90;;;;;;6245777;23;20027;-63
2023/07/17 02:37:29;;;;;;;6.53;2.88;;;14.80;99.90;;;;;;6243931;23;20079;-61
2023/07/17 02:39:56;;;;;;;10.90;3.20;;;14.80;99.90;;;;;;6243111;23;20024;-67
2023/07/17 02:42:23;;;;;;;9.23;2.70;;;14.70;99.90;;;;;;6245394;23;20024;-64
2023/07/17 02:44:51;;;;;;;9.05;3.03;;;14.70;99.90;;;;;;6243767;23;20359;-64
2023/07/17 02:47:18;;;;;;;7.90;2.42;;;14.60;99.90;;;;;;6243079;23;20075;-65
2023/07/17 02:49:46;;;;;;;7.38;2.90;;;14.60;99.90;;;;;;6243827;23;20099;-65
2023/07/17 02:52:13;;;;;;;6.40;2.63;;;14.60;99.90;;;;;;6243761;23;20031;-65
2023/07/17 02:54:40;;;;;;;6.57;2.58;;;14.60;99.90;;;;;;6244721;23;20381;-65
2023/07/17 02:57:08;;;;;;;8.15;2.85;;;14.60;99.90;;;;;;6243647;23;20026;-65
2023/07/17 02:59:36;;;;;;;8.23;2.90;;;14.60;99.90;;;;;;6245163;23;20407;-65
2023/07/17 03:02:04;;;;;;;6.72;2.88;;;14.60;99.90;;;;;;6242935;23;20064;-65
2023/07/17 03:04:31;;;;;;;9.27;3.55;;;14.60;99.90;;;;;;6243237;23;20107;-65
2023/07/17 03:06:59;;;;;;;8.45;3.70;;;14.60;99.90;;;;;;6245654;23;20028;-65
2023/07/17 03:09:27;;;;;;;12.07;4.40;;;14.60;99.90;;;;;;6244631;23;20074;-65
2023/07/17 03:11:54;;;;;;;9.27;3.10;;;14.60;99.90;;;;;;6243449;23;20027;-65
2023/07/17 03:14:21;;;;;;;8.40;3.83;;;14.70;99.90;;;;;;6242936;23;20358;-65
2023/07/17 03:16:47;;;;;;;16.08;4.35;;;14.60;99.90;;;;;;6243431;23;20397;-65
2023/07/17 03:19:14;;;;;;;9.38;3.80;;;14.60;99.90;;;;;;6244877;23;20020;-65
2023/07/17 03:21:41;;;;;;;10.98;4.95;;;14.60;99.90;;;;;;6242804;23;20335;-65
2023/07/17 03:24:10;;;;;;;9.05;3.45;;;14.60;99.90;;;;;;6245186;23;20031;-65
2023/07/17 03:26:36;;;;;;;6.78;3.65;;;14.70;99.90;;;;;;6243287;23;20028;-65
2023/07/17 03:29:04;;;;;;;9.45;3.97;;;14.70;99.90;;;;;;6244353;23;20039;-65
2023/07/17 03:31:31;;;;;;;8.18;3.13;;;14.70;99.90;;;;;;6243156;23;20451;-65
2023/07/17 03:33:58;;;;;;;8.63;3.40;;;14.70;99.90;;;;;;6243850;23;20488;-65
2023/07/17 03:36:24;;;;;;;9.73;3.80;;;14.70;99.90;;;;;;6242366;23;20024;-65
2023/07/17 03:38:51;;;;;;;9.48;3.47;;;14.70;99.90;;;;;;6242837;23;20020;-65
2023/07/17 03:41:21;;;;;;;6.45;3.08;;;14.70;99.90;;;;;;6245258;23;20032;-66
2023/07/17 03:43:48;;;;;;;10.00;3.33;;;14.70;99.90;;;;;;6244286;23;20024;-66
2023/07/17 03:46:15;;;;;;;9.23;3.38;;;14.60;99.90;;;;;;6243460;23;20024;-65
2023/07/17 03:48:42;;;;;;;11.82;4.15;;;14.60;99.90;;;;;;6244820;23;20450;-65
2023/07/17 03:51:09;;;;;;;8.15;2.78;;;14.50;99.90;;;;;;6244337;23;20528;-66
2023/07/17 03:53:36;;;;;;;7.22;3.72;;;14.50;99.90;;;;;;6244744;23;20020;-66
2023/07/17 03:56:03;;;;;;;5.90;3.25;;;14.40;99.90;;;;;;6243384;23;20352;-66
2023/07/17 03:58:31;;;;;;;9.52;3.40;;;14.40;99.90;;;;;;6242576;23;20024;-65
2023/07/17 04:00:58;;;;;;;15.30;3.30;;;14.30;99.90;;;;;;6245413;23;20029;-65
2023/07/17 04:03:25;;;;;;;10.05;3.67;;;14.30;99.90;;;;;;6244849;23;20454;-65
2023/07/17 04:05:52;;;;;;;9.23;3.00;;;14.30;99.90;;;;;;6243299;23;20453;-66
2023/07/17 04:08:18;;;;;;;6.45;2.60;;;14.30;99.90;;;;;;6243308;23;20488;-65
2023/07/17 04:10:45;;;;;;;7.40;3.08;;;14.30;99.90;;;;;;6242787;23;20054;-65
2023/07/17 04:13:13;;;;;;;9.00;3.38;;;14.30;99.90;;;;;;6244907;23;20382;-66
2023/07/17 04:15:42;;;;;;;8.25;2.72;;;14.30;99.90;;;;;;6243575;23;20496;-66
2023/07/17 04:18:09;;;;;;;11.32;3.75;;;14.30;99.90;;;;;;6246173;23;20056;-66
2023/07/17 04:20:39;;;;;;;11.00;3.33;;;14.30;99.90;;;;;;6245203;23;20082;-66
2023/07/17 04:23:06;;;;;;;7.22;2.58;;;14.30;99.90;;;;;;6246963;23;20078;-66
2023/07/17 04:25:33;;;;;;;12.65;3.80;;;14.30;99.90;;;;;;6244579;23;20413;-65
2023/07/17 04:28:02;;;;;;;6.90;2.85;;;14.30;99.90;;;;;;6246733;23;20024;-65
2023/07/17 04:30:28;;;;;;;6.03;2.63;;;14.40;99.90;;;;;;6247068;23;20074;-65
2023/07/17 04:32:58;;;;;;;5.53;2.72;;;14.30;99.90;;;;;;6244442;23;20074;-66
2023/07/17 04:35:25;;;;;;;9.50;2.95;;;14.40;99.90;;;;;;6246797;23;20020;-65
2023/07/17 04:37:55;;;;;;;7.03;3.42;;;14.40;99.90;;;;;;6245031;23;20028;-66
2023/07/17 04:40:22;;;;;;;10.00;2.97;;;14.50;99.90;;;;;;6244051;23;20032;-62
2023/07/17 04:42:49;;;;;;;7.72;3.00;;;14.50;99.90;;;;;;6246706;23;20020;-62
2023/07/17 04:45:19;;;;;;;10.00;3.05;;;14.50;99.90;;;;;;6246345;23;20468;-62
2023/07/17 04:47:46;;;;;;;14.20;3.53;;;14.60;99.90;;;;;;6243118;23;20039;-62
2023/07/17 04:50:14;;;;;;;9.68;3.22;;;14.60;99.90;;;;;;6244660;23;20027;-62
2023/07/17 04:52:41;;;;;;;7.93;2.85;;;14.70;99.90;;;;;;6242520;23;20028;-62
2023/07/17 04:55:09;;;;;;;11.88;3.80;;;14.90;99.90;;;;;;6245000;23;20553;-61
2023/07/17 04:57:36;;;;;;;14.52;3.30;;;15.00;99.90;;;;;;6245309;22;20074;-62
2023/07/17 05:00:05;;;;;;;8.13;3.15;;;15.10;99.90;;;;;;6243372;23;20032;-62
2023/07/17 05:02:31;;;;;;;8.48;2.95;;;15.10;99.90;;;;;;6245415;22;20023;-62
2023/07/17 05:04:58;;;;;;;10.70;3.17;;;15.20;99.90;;;;;;6244092;23;20050;-61
2023/07/17 05:07:28;;;;;;;9.55;2.83;;;15.30;99.90;;;;;;6244716;23;20446;-62
2023/07/17 05:09:54;;;;;;;10.30;3.25;;;15.30;99.90;;;;;;6245488;23;20409;-62
2023/07/17 05:12:21;;;;;;;8.30;3.25;;;15.40;99.90;;;;;;6243833;23;20138;-63
2023/07/17 05:14:48;;;;;;;9.00;3.22;;;15.50;99.90;;;;;;6245030;23;20027;-63
2023/07/17 05:17:15;;;;;;;8.20;3.95;;;15.60;99.90;;;;;;6243556;23;20098;-63
2023/07/17 05:19:42;;;;;;;9.48;2.80;;;15.80;99.90;;;;;;6245389;23;20046;-62
2023/07/17 05:22:09;;;;;;;13.05;3.08;;;15.90;99.90;;;;;;6244973;23;20454;-63
2023/07/17 05:24:38;;;;;;;10.57;3.25;;;16.10;99.90;;;;;;6244935;23;20351;-63
2023/07/17 05:27:05;;;;;;;13.15;3.67;;;16.20;99.90;;;;;;6243795;23;20473;-63
2023/07/17 05:29:33;;;;;;;12.35;3.53;;;16.40;99.90;;;;;;6242132;23;20022;-62
2023/07/17 05:31:59;;;;;;;11.27;3.50;;;16.50;99.90;;;;;;6243719;23;20024;-62
2023/07/17 05:34:26;;;;;;;9.68;3.55;;;16.60;99.90;;;;;;6241018;23;20024;-62
2023/07/17 05:36:53;;;;;;;11.07;4.13;;;16.80;99.90;;;;;;6242887;23;20032;-62
2023/07/17 05:39:20;;;;;;;16.38;3.95;;;16.90;99.90;;;;;;6242207;23;20532;-62
2023/07/17 05:41:48;;;;;;;9.63;3.58;;;17.60;99.90;;;;;;6244798;23;20027;-62
2023/07/17 05:44:15;;;;;;;9.38;3.35;;;17.00;99.90;;;;;;6242430;23;20082;-63
2023/07/17 05:46:42;;;;;;;9.60;3.38;;;17.20;99.90;;;;;;6245446;23;20035;-62
2023/07/17 05:49:09;;;;;;;12.80;3.20;;;17.40;99.90;;;;;;6244131;23;20023;-63
2023/07/17 05:51:36;;;;;;;8.32;3.20;;;17.60;99.90;;;;;;6245364;23;20031;-62
2023/07/17 05:54:03;;;;;;;13.88;4.10;;;17.80;99.90;;;;;;6244107;23;20024;-63
2023/07/17 05:56:30;;;;;;;14.23;3.50;;;17.90;99.90;;;;;;6242665;23;20031;-63
2023/07/17 05:58:58;;;;;;;9.40;3.00;;;17.90;99.90;;;;;;6244761;23;20020;-63
2023/07/17 06:01:25;;;;;;;7.95;3.40;;;18.00;99.90;;;;;;6243953;22;20035;-63
2023/07/17 06:03:52;;;;;;;9.57;3.55;;;18.00;99.90;;;;;;6243205;23;20393;-63
2023/07/17 06:06:19;;;;;;;8.23;2.97;;;17.90;99.90;;;;;;6243628;23;20086;-63
2023/07/17 06:08:46;;;;;;;12.73;4.72;;;18.00;99.90;;;;;;6244305;23;20031;-63
2023/07/17 06:11:13;;;;;;;10.77;3.90;;;18.00;99.90;;;;;;6245062;23;20020;-62
2023/07/17 06:13:40;;;;;;;9.38;3.78;;;18.00;99.90;;;;;;6245998;23;20035;-63
2023/07/17 06:16:08;;;;;;;12.65;3.83;;;18.20;99.90;;;;;;6245920;23;20020;-62
2023/07/17 06:18:35;;;;;;;9.77;3.55;;;18.40;99.90;;;;;;6243115;23;20031;-62
2023/07/17 06:21:02;;;;;;;13.43;3.55;;;18.50;99.90;;;;;;6245789;23;20075;-62
2023/07/17 06:23:29;;;;;;;10.10;4.00;;;18.60;99.90;;;;;;6244015;23;20095;-63
2023/07/17 06:25:56;;;;;;;10.82;4.00;;;18.60;99.90;;;;;;6244684;23;20024;-62
2023/07/17 06:28:23;;;;;;;12.52;3.78;;;18.80;99.90;;;;;;6245944;23;20020;-62
2023/07/17 06:30:51;;;;;;;9.60;4.07;;;18.90;99.90;;;;;;6243710;23;20078;-63
2023/07/17 06:33:19;;;;;;;17.15;4.20;;;19.00;99.90;;;;;;6245074;23;20343;-62
2023/07/17 06:35:46;;;;;;;16.38;4.55;;;19.10;99.90;;;;;;6243799;23;20074;-62
2023/07/17 06:38:13;;;;;;;11.95;4.57;;;19.10;99.90;;;;;;6245797;23;20020;-63
2023/07/17 06:40:40;;;;;;;9.50;3.70;;;19.20;99.90;;;;;;6244347;23;20340;-62
2023/07/17 06:43:07;;;;;;;10.40;3.20;;;19.40;99.90;;;;;;6245327;22;20023;-63
2023/07/17 06:45:35;;;;;;;8.77;3.35;;;19.60;99.90;;;;;;6244512;23;20442;-63
2023/07/17 06:48:02;;;;;;;10.23;3.75;;;19.60;99.90;;;;;;6245594;23;20035;-62
2023/07/17 06:50:30;;;;;;;9.40;3.70;;;19.70;99.90;;;;;;6243725;23;20039;-62
2023/07/17 06:52:57;;;;;;;9.70;4.03;;;19.90;99.90;;;;;;6243124;23;20028;-62
2023/07/17 06:55:24;;;;;;;13.70;3.95;;;19.70;99.90;;;;;;6245174;23;20581;-63
2023/07/17 06:57:51;;;;;;;14.57;4.60;;;19.70;99.90;;;;;;6245607;23;20035;-62
2023/07/17 07:00:18;;;;;;;9.50;4.43;;;19.50;99.90;;;;;;6244711;23;20338;-63
2023/07/17 07:02:45;;;;;;;9.85;3.90;;;19.20;99.90;;;;;;6245640;23;20024;-63
2023/07/17 07:05:12;;;;;;;10.38;3.80;;;19.20;99.90;;;;;;6243582;23;20028;-62
2023/07/17 07:07:41;;;;;;;11.57;4.15;;;19.10;99.90;;;;;;6244788;23;20024;-63
2023/07/17 07:10:09;;;;;;;9.98;3.88;;;18.90;99.90;;;;;;6245313;23;20081;-62
2023/07/17 07:12:36;;;;;;;10.55;3.75;;;18.70;99.90;;;;;;6243643;23;20438;-62
2023/07/17 07:15:03;;;;;;;18.27;3.97;;;18.70;99.90;;;;;;6244706;23;20028;-62
2023/07/17 07:17:31;;;;;;;15.45;4.70;;;18.60;99.90;;;;;;6243731;23;20026;-63
2023/07/17 07:19:58;;;;;;;10.10;3.55;;;18.80;99.90;;;;;;6243324;23;20078;-63
2023/07/17 07:22:24;;;;;;;9.38;3.72;;;18.70;99.90;;;;;;6242509;23;20346;-62
2023/07/17 07:24:53;;;;;;;8.75;3.42;;;18.70;99.90;;;;;;6245164;23;20020;-62
2023/07/17 07:27:21;;;;;;;8.20;3.40;;;18.40;99.90;;;;;;6243662;23;20350;-62
2023/07/17 07:29:47;;;;;;;7.47;3.13;;;18.20;99.90;;;;;;6244692;22;20017;-62
2023/07/17 07:32:14;;;;;;;9.38;3.10;;;17.70;99.90;;;;;;6243446;23;20028;-63
2023/07/17 07:34:41;;;;;;;10.15;3.13;;;17.40;99.90;;;;;;6244350;23;20020;-63
2023/07/17 07:37:08;;;;;;;6.85;2.80;;;17.20;99.90;;;;;;6245328;23;20320;-62
2023/07/17 07:39:35;;;;;;;9.50;3.60;;;17.10;99.90;;;;;;6244884;23;20462;-62
2023/07/17 07:42:04;;;;;;;9.85;3.17;;;17.20;99.90;;;;;;6244244;23;20354;-62
2023/07/17 07:44:30;;;;;;;9.32;3.13;;;18.00;99.90;;;;;;6245102;23;20024;-63
2023/07/17 07:46:57;;;;;;;7.32;3.60;;;18.60;99.90;;;;;;6243474;23;20028;-63
2023/07/17 07:49:24;;;;;;;8.43;3.40;;;19.10;99.90;;;;;;6242759;23;20028;-61
2023/07/17 07:51:51;;;;;;;6.47;3.20;;;19.60;99.90;;;;;;6244538;23;20071;-62
2023/07/17 07:54:18;;;;;;;5.80;2.70;;;19.90;99.90;;;;;;6247219;23;20031;-62
2023/07/17 07:56:45;;;;;;;9.98;3.30;;;20.30;99.90;;;;;;6242325;23;20042;-61
2023/07/17 07:59:13;;;;;;;7.30;2.75;;;20.80;99.90;;;;;;6246117;23;20020;-62
2023/07/17 08:01:40;;;;;;;11.75;3.40;;;21.30;99.90;;;;;;6244391;23;20020;-61
2023/07/17 08:04:07;;;;;;;9.43;3.58;;;21.40;99.90;;;;;;6245674;23;20377;-63
2023/07/17 08:06:34;;;;;;;8.52;3.53;;;21.20;99.90;;;;;;6244108;23;20031;-63
2023/07/17 08:09:01;;;;;;;9.68;3.38;;;20.90;99.90;;;;;;6246333;23;20031;-61
2023/07/17 08:11:28;;;;;;;5.28;2.97;;;21.10;99.90;;;;;;6245445;23;20023;-62
2023/07/17 08:13:55;;;;;;;8.57;3.17;;;21.70;99.90;;;;;;6245956;23;20035;-62
2023/07/17 08:16:23;;;;;;;7.22;3.38;;;21.80;99.90;;;;;;6245825;22;20036;-62
2023/07/17 08:18:50;;;;;;;7.65;3.33;;;22.10;99.90;;;;;;6243423;23;20032;-62
2023/07/17 08:21:17;;;;;;;9.90;3.28;;;22.70;99.90;;;;;;6245945;23;20020;-62
2023/07/17 08:23:45;;;;;;;11.48;4.07;;;22.60;99.90;;;;;;6245629;23;20024;-62
2023/07/17 08:26:13;;;;;;;8.82;3.60;;;22.90;99.90;;;;;;6245158;23;20066;-62
2023/07/17 08:28:39;;;;;;;6.80;3.00;;;22.90;99.90;;;;;;6245973;23;20074;-62
2023/07/17 08:31:06;;;;;;;13.65;3.42;;;22.90;99.90;;;;;;6244914;23;20031;-62
2023/07/17 08:33:35;;;;;;;6.97;2.78;;;22.80;99.90;;;;;;6246042;23;20047;-62
2023/07/17 08:36:01;;;;;;;5.50;2.92;;;22.80;99.90;;;;;;6245740;23;20028;-62
2023/07/17 08:38:28;;;;;;;8.60;2.75;;;22.90;99.90;;;;;;6243486;23;20024;-62
2023/07/17 08:40:55;;;;;;;9.80;2.95;;;22.70;99.90;;;;;;6245806;23;20027;-63
2023/07/17 08:43:24;;;;;;;6.68;2.90;;;22.50;99.90;;;;;;6245377;22;20473;-62
2023/07/17 08:45:52;;;;;;;7.22;3.42;;;21.90;99.90;;;;;;6243328;23;20077;-62
2023/07/17 08:48:20;;;;;;;7.63;2.95;;;21.30;99.90;;;;;;6243721;23;20031;-62
2023/07/17 08:50:48;;;;;;;8.90;3.25;;;21.20;99.90;;;;;;6245790;23;20082;-62
2023/07/17 08:53:17;;;;;;;10.75;2.65;;;21.50;99.90;;;;;;6243562;23;20028;-62
2023/07/17 08:55:44;;;;;;;5.45;2.53;;;22.10;99.90;;;;;;6245635;23;20040;-62
2023/07/17 08:58:11;;;;;;;8.07;2.50;;;22.80;99.90;;;;;;6245391;23;20070;-62
2023/07/17 09:00:39;;;;;;;5.57;2.20;;;23.30;99.90;;;;;;6242813;23;20066;-63
2023/07/17 09:03:06;;;;;;;7.47;2.38;;;23.60;99.00;;;;;;6243276;23;20062;-62
2023/07/17 09:05:33;;;;;;;6.65;2.33;;;23.70;98.70;;;;;;6245087;23;20038;-62
2023/07/17 09:08:02;;;;;;;10.38;2.58;;;23.70;97.50;;;;;;6244233;23;20071;-63
2023/07/17 09:10:29;;;;;;;6.70;2.25;;;23.20;95.60;;;;;;6244901;23;20355;-62
2023/07/17 09:12:57;;;;;;;9.88;3.05;;;22.90;95.90;;;;;;6244635;23;20466;-62
2023/07/17 09:15:24;;;;;;;10.00;2.72;;;22.80;96.20;;;;;;6245627;23;20028;-62
2023/07/17 09:17:52;;;;;;;10.30;2.50;;;22.90;96.60;;;;;;6246541;23;20024;-62
2023/07/17 09:20:20;;;;;;;7.40;2.20;;;22.80;96.80;;;;;;6245387;23;20024;-62
2023/07/17 09:22:47;;;;;;;9.07;2.50;;;22.60;96.90;;;;;;6244532;23;20106;-62
2023/07/17 09:25:16;;;;;;;12.30;2.97;;;22.50;97.10;;;;;;6244734;23;20035;-62
2023/07/17 09:27:45;;;;;;;11.37;2.40;;;22.40;96.90;;;;;;6245260;23;20127;-62
2023/07/17 09:30:14;;;;;;;8.23;2.67;;;22.30;96.40;;;;;;6244794;23;20027;-62
2023/07/17 09:32:42;;;;;;;6.93;2.50;;;22.80;95.90;;;;;;6244522;23;20472;-62
2023/07/17 09:35:11;;;;;;;9.52;2.50;;;23.00;96.00;;;;;;6245793;23;20028;-63
2023/07/17 09:37:40;;;;;;;6.88;2.42;;;23.50;95.30;;;;;;6244518;23;20066;-62
2023/07/17 09:40:09;;;;;;;8.40;2.13;;;23.40;95.00;;;;;;6244316;23;20024;-62
2023/07/17 09:42:38;;;;;;;12.18;2.90;;;23.60;94.30;;;;;;6244853;23;20031;-62
2023/07/17 09:45:06;;;;;;;11.37;3.00;;;24.60;94.00;;;;;;6244367;23;20024;-62
2023/07/17 09:47:33;;;;;;;8.15;2.10;;;25.00;93.90;;;;;;6245666;22;20247;-62
2023/07/17 09:50:03;;;;;;;6.97;2.50;;;24.70;93.30;;;;;;6243600;23;20028;-62
2023/07/17 09:52:30;;;;;;;5.57;2.38;;;24.40;93.30;;;;;;6244176;23;20026;-63
2023/07/17 09:55:00;;;;;;;7.53;2.17;;;24.30;93.90;;;;;;6240214;23;20078;-62
2023/07/17 09:57:28;;;;;;;;;;;24.60;93.70;;;;;;6244880;23;20024;-63
2023/07/17 09:59:58;;;;;;;9.82;2.00;;;24.20;92.50;;;;;;6242596;23;20003;-62
2023/07/17 10:02:30;;;;;;;7.07;2.03;;;24.00;93.00;;;;;;6242262;23;20024;-62
2023/07/17 10:05:00;;;;;;;8.07;2.30;;;23.60;93.00;;;;;;6242757;23;20032;-62
2023/07/17 10:07:29;;;;;;;5.97;2.13;;;23.60;93.50;;;;;;6245176;23;20065;-63
2023/07/17 10:09:58;;;;;;;5.50;1.98;;;23.30;93.50;;;;;;6244135;23;20393;-62
2023/07/17 10:12:25;;;;;;;8.27;2.28;;;23.10;94.20;;;;;;6244350;23;20071;-62
2023/07/17 10:14:53;;;;;;;7.85;2.38;;;22.70;94.50;;;;;;6242607;23;20052;-62
2023/07/17 10:17:29;;;;;;;4.60;2.30;;;23.30;94.50;;;;;;6244106;23;20024;-62
2023/07/17 10:19:58;;;;;;;6.07;2.03;;;23.80;93.10;;;;;;6242785;23;20028;-62
2023/07/17 10:22:31;;;;;;;7.50;1.90;;;23.60;93.40;;;;;;6242589;23;20078;-61
2023/07/17 10:24:58;;;;;;;8.23;2.67;;;23.10;93.90;;;;;;6242483;23;20020;-63
2023/07/17 10:27:39;;;;;;;7.55;2.05;;;22.90;94.40;;;;;;6242689;23;20028;-62
2023/07/17 10:30:27;;;;;;;4.53;2.17;;;22.90;94.30;;;;;;6242894;23;20461;-63
2023/07/17 10:33:13;;;;;;;6.25;1.95;;;23.50;93.80;;;;;;6244205;23;20414;-63
2023/07/17 10:35:48;;;;;;;7.13;1.90;;;23.40;92.50;;;;;;6244751;23;20050;-63
2023/07/17 10:38:16;;;;;;;5.63;2.00;;;23.50;92.90;;;;;;6242317;23;20035;-62
2023/07/17 10:40:43;;;;;;;6.43;2.03;;;23.30;92.70;;;;;;6244210;23;20454;-63
2023/07/17 10:43:11;;;;;;;8.02;2.10;;;23.30;92.80;;;;;;6242441;23;20054;-62
2023/07/17 10:45:39;;;;;;;14.40;2.55;;;23.20;93.00;;;;;;6241307;23;20026;-62
2023/07/17 10:48:07;;;;;;;4.55;2.17;;;22.90;93.20;;;;;;6242833;23;20082;-62
2023/07/17 10:50:34;;;;;;;5.88;1.98;;;22.90;92.60;;;;;;6243833;23;20027;-63
2023/07/17 10:53:05;;;;;;;5.10;1.65;;;22.60;93.00;;;;;;6244146;22;20026;-63
2023/07/17 10:55:32;;;;;;;9.75;2.80;;;22.70;92.30;;;;;;6242915;23;20086;-63
2023/07/17 10:58:01;;;;;;;11.25;2.58;;;22.80;93.20;;;;;;6244758;23;20082;-62
2023/07/17 11:00:28;;;;;;;4.97;1.98;;;23.30;93.10;;;;;;6243201;23;20028;-63
2023/07/17 11:02:57;;;;;;;5.35;1.65;;;23.90;92.20;;;;;;6242694;23;20024;-63
2023/07/17 11:05:25;;;;;;;8.75;2.40;;;24.40;91.90;;;;;;6244060;23;20024;-62
2023/07/17 11:07:52;;;;;;;4.75;1.85;;;24.60;91.70;;;;;;6243985;23;20024;-63
2023/07/17 11:10:19;;;;;;;5.35;1.70;;;24.80;90.60;;;;;;6242306;23;20358;-63
2023/07/17 11:12:46;;;;;;;4.15;1.80;;;24.90;90.30;;;;;;6243727;23;20123;-63
2023/07/17 11:15:15;;;;;;;4.18;1.80;;;24.70;89.50;;;;;;6244120;23;20020;-63
2023/07/17 11:17:42;;;;;;;6.22;1.95;;;25.20;90.00;;;;;;6244619;23;20090;-63
2023/07/17 11:20:10;;;;;;;5.95;1.67;;;25.80;90.40;;;;;;6239019;23;20077;-63
2023/07/17 11:22:40;;;;;;;4.25;1.73;;;26.00;88.10;;;;;;6241158;23;20024;-63
2023/07/17 11:25:10;;;;;;;4.47;1.67;;;26.00;88.20;;;;;;6243797;23;20406;-64
2023/07/17 11:27:38;;;;;;;6.22;2.00;;;25.40;87.50;;;;;;6246612;23;20020;-63
2023/07/17 11:30:16;;;;;;;6.85;1.90;;;25.80;88.40;;;;;;6247405;23;20028;-62
2023/07/17 11:32:43;;;;;;;6.47;2.40;;;26.40;88.80;;;;;;6246884;23;20098;-63
2023/07/17 11:35:12;;;;;;;6.78;2.05;;;26.30;88.50;;;;;;6246558;23;20071;-63
2023/07/17 11:37:41;;;;;;;5.93;1.70;;;25.60;88.60;;;;;;6247092;23;20453;-63
2023/07/17 11:40:09;;;;;;;9.60;2.00;;;26.00;88.40;;;;;;6246822;23;20027;-63
2023/07/17 11:42:56;;;;;;;6.68;1.70;;;26.50;87.90;;;;;;6244754;23;20446;-64
2023/07/17 11:45:27;;;;;;;3.65;1.40;;;26.40;87.30;;;;;;6245660;23;20024;-63
2023/07/17 11:47:56;;;;;;;5.47;2.17;;;26.60;86.60;;;;;;6246763;23;20032;-63
2023/07/17 11:50:25;;;;;;;4.15;1.80;;;26.40;86.30;;;;;;6246748;23;20028;-63
2023/07/17 11:53:05;;;;;;;6.93;2.25;;;25.80;86.20;;;;;;6246766;23;20023;-62
2023/07/17 11:55:36;;;;;;;5.95;1.88;;;25.10;86.30;;;;;;6245918;23;20397;-63
2023/07/17 11:58:12;;;;;;;7.63;2.00;;;24.70;86.80;;;;;;6247480;23;20027;-63
2023/07/17 12:00:41;;;;;;;4.40;1.98;;;24.50;88.30;;;;;;6245024;23;20528;-63
2023/07/17 12:03:08;;;;;;;7.18;2.40;;;24.80;88.70;;;;;;6244000;23;20020;-63
2023/07/17 12:05:35;;;;;;;6.53;2.00;;;24.80;89.00;;;;;;6244948;23;20027;-63
2023/07/17 12:08:02;;;;;;;8.93;1.80;;;24.50;88.50;;;;;;6246939;23;20462;-63
2023/07/17 12:10:32;;;;;;;7.97;2.60;;;24.10;89.10;;;;;;6246318;23;20071;-64
2023/07/17 12:12:59;;;;;;;11.20;2.88;;;23.70;91.60;;;;;;6246489;23;20454;-63
2023/07/17 12:15:27;;;;;;;5.88;2.00;;;23.20;94.80;;;;;;6246341;23;20034;-62
2023/07/17 12:17:54;;;;;;;5.03;2.08;;;22.70;97.70;;;;;;6246521;23;20024;-62
2023/07/17 12:20:21;;;;;;;6.00;1.98;;;23.20;99.30;;;;;;6246811;23;20024;-63
2023/07/17 12:22:56;;;;;;;6.10;1.85;;;23.80;99.90;;;;;;6247022;23;20016;-62
2023/07/17 12:25:24;;;;;;;8.15;2.20;;;24.10;98.10;;;;;;6244592;23;20059;-63
2023/07/17 12:27:52;;;;;;;5.22;2.05;;;24.90;97.10;;;;;;6247204;23;20077;-63
2023/07/17 12:30:22;;;;;;;6.13;2.08;;;25.40;96.30;;;;;;6246300;23;20024;-63
2023/07/17 12:32:48;;;;;;;;;;;25.80;95.00;;;;;;6247393;23;20402;-63
2023/07/17 12:35:16;;;;;;;7.07;2.65;;;26.00;93.60;;;;;;6247094;23;19919;-63
2023/07/17 12:37:42;;;;;;;6.15;2.17;;;25.80;93.30;;;;;;6245812;23;20047;-63
2023/07/17 12:40:10;;;;;;;8.13;2.10;;;25.30;93.00;;;;;;6245334;23;20028;-63
2023/07/17 12:42:39;;;;;;;8.70;2.53;;;24.70;92.80;;;;;;6244558;23;20048;-63
2023/07/17 12:45:08;;;;;;;5.93;2.10;;;23.90;93.40;;;;;;6244754;23;20062;-63
2023/07/17 12:47:35;;;;;;;4.95;2.03;;;24.40;94.00;;;;;;6243755;23;20466;-62